Great Reward — VRFZ6 — position and weather

sailwx.info

Track history (hours):
 
Tides and Currents Weather Stations Pressure Air Temp Water Temp Dewpoint Dewpoint Depression Visibility Wind Speed Wind Dir Waves Ship Positions

Great Reward

Last reported at 2018-Jan-03 14:02 UTC. Time now 2018-Jan-20 13:29 UTC.
Position S 36°03' E 174°42'.
Warning: this ship's position is 16 days out of date.

Length 178 m; draft 8.8 m.

Type: Cargo ship. MMSI: 338097928.

Date/timePositionNaut miles runAvg speedWind from/ knotsBaromVisibWave heightAir tempDewpointWater temp
2018-Jan-03 14:02S 36°03' E 174°42'410.5
2018-Jan-03 13:38S 36°06' E 174°45'110.8
2018-Jan-03 13:30S 36°07' E 174°46'1210.7
2018-Jan-03 12:24S 36°15' E 174°57'411.0
2018-Jan-03 12:00S 36°16' E 175°02'611.3
2018-Jan-03 11:30S 36°18' E 175°09'611.1
2018-Jan-03 11:00S 36°20' E 175°15'2010.8
2018-Jan-03 09:06S 36°27' E 175°39'310.6
2018-Jan-03 08:48S 36°28' E 175°43'310.7
2018-Jan-03 08:29S 36°30' E 175°47'  
Track history (hours):
 
Tides and Currents Weather Stations Pressure Air Temp Water Temp Dewpoint Dewpoint Depression Visibility Wind Speed Wind Dir Waves Ship Positions

Great Reward

Last reported at 2018-Jan-03 14:02 UTC. Time now 2018-Jan-20 13:29 UTC.
Position S 36°03' E 174°42'.
Warning: this ship's position is 16 days out of date.

Length 178 m; draft 8.8 m.

Type: Cargo ship. MMSI: 338097928.

Date/timePositionNaut miles runAvg speedWind from/ knotsBaromVisibWave heightAir tempDewpointWater temp
2018-Jan-03 14:02S 36°03' E 174°42'410.5
2018-Jan-03 13:38S 36°06' E 174°45'110.8
2018-Jan-03 13:30S 36°07' E 174°46'1210.7
2018-Jan-03 12:24S 36°15' E 174°57'411.0
2018-Jan-03 12:00S 36°16' E 175°02'611.3
2018-Jan-03 11:30S 36°18' E 175°09'611.1
2018-Jan-03 11:00S 36°20' E 175°15'2010.8
2018-Jan-03 09:06S 36°27' E 175°39'310.6
2018-Jan-03 08:48S 36°28' E 175°43'310.7
2018-Jan-03 08:29S 36°30' E 175°47'  

Dump ship's entire track history